Terminal Aerodrome Forecast
Issued by NWS

Home | Current Version | Previous Version | Text Only | Print | Product List | Glossary On
Versions: 1 2 3 4 5 6 7 8 9 10 11 12 13 14 15 16 17 18 19 20 21 22 23 24 25 26 27 28 29 30 31 32 33 34 35 36 37 38 39 40
000
FTUS44 KHGX 011140
TAFLBX
TAF
KLBX 011140Z 0112/0212 08008KT 1 1/2SM BR VCSH OVC002
      TEMPO 0112/0115 2SM SHRA BR OVC003
     FM011700 07007KT 4SM -DZ BR VCSH OVC006
     FM012000 09009KT 5SM -RA BR VCSH OVC007
     FM020100 07006KT 2SM -RA BR VCSH OVC005
     FM020300 06006KT 1/2SM -RA FG VCSH OVC004
     FM020600 01008KT 1/4SM -RA FG VCSH OVC002=

USA.gov is the U.S. government's official web portal to all federal, state and local government web resources and services.